sensor_id;sensor_type;location;lat;lon;timestamp;temperature;humidity
13642;DHT22;6894;52.196;9.904;2023-10-19T00:02:46;8.00;1.00
13642;DHT22;6894;52.196;9.904;2023-10-19T00:05:12;8.00;1.00
13642;DHT22;6894;52.196;9.904;2023-10-19T00:07:40;7.90;52.20
13642;DHT22;6894;52.196;9.904;2023-10-19T00:10:06;7.90;99.90
13642;DHT22;6894;52.196;9.904;2023-10-19T00:12:35;8.00;1.00
13642;DHT22;6894;52.196;9.904;2023-10-19T00:15:01;7.90;1.00
13642;DHT22;6894;52.196;9.904;2023-10-19T00:17:29;7.90;99.90
13642;DHT22;6894;52.196;9.904;2023-10-19T00:19:57;7.90;1.00
13642;DHT22;6894;52.196;9.904;2023-10-19T00:22:44;7.90;1.00
13642;DHT22;6894;52.196;9.904;2023-10-19T00:25:09;7.90;1.00
13642;DHT22;6894;52.196;9.904;2023-10-19T00:27:38;7.90;1.00
13642;DHT22;6894;52.196;9.904;2023-10-19T00:30:08;7.90;99.90
13642;DHT22;6894;52.196;9.904;2023-10-19T00:32:36;7.90;99.90
13642;DHT22;6894;52.196;9.904;2023-10-19T00:35:06;7.90;1.00
13642;DHT22;6894;52.196;9.904;2023-10-19T00:37:52;7.90;1.00
13642;DHT22;6894;52.196;9.904;2023-10-19T00:40:22;7.90;1.00
13642;DHT22;6894;52.196;9.904;2023-10-19T00:43:03;7.90;99.90
13642;DHT22;6894;52.196;9.904;2023-10-19T00:45:32;7.90;99.90
13642;DHT22;6894;52.196;9.904;2023-10-19T00:48:06;7.90;93.90
13642;DHT22;6894;52.196;9.904;2023-10-19T00:50:35;7.90;99.90
13642;DHT22;6894;52.196;9.904;2023-10-19T00:53:03;7.90;99.90
13642;DHT22;6894;52.196;9.904;2023-10-19T00:55:33;7.90;99.90
13642;DHT22;6894;52.196;9.904;2023-10-19T00:58:01;7.80;99.90
13642;DHT22;6894;52.196;9.904;2023-10-19T01:00:35;7.80;99.90
13642;DHT22;6894;52.196;9.904;2023-10-19T01:03:10;7.90;99.90
13642;DHT22;6894;52.196;9.904;2023-10-19T01:05:44;7.90;1.00
13642;DHT22;6894;52.196;9.904;2023-10-19T01:08:14;7.80;1.00
13642;DHT22;6894;52.196;9.904;2023-10-19T01:10:49;7.80;1.00
13642;DHT22;6894;52.196;9.904;2023-10-19T01:13:17;7.90;1.00
13642;DHT22;6894;52.196;9.904;2023-10-19T01:15:52;7.90;1.00
13642;DHT22;6894;52.196;9.904;2023-10-19T01:18:19;7.80;1.00
13642;DHT22;6894;52.196;9.904;2023-10-19T01:20:48;7.80;1.00
13642;DHT22;6894;52.196;9.904;2023-10-19T01:23:18;7.80;1.00
13642;DHT22;6894;52.196;9.904;2023-10-19T01:25:53;7.80;1.00
13642;DHT22;6894;52.196;9.904;2023-10-19T01:28:29;7.80;1.00
13642;DHT22;6894;52.196;9.904;2023-10-19T01:31:08;7.80;1.00
13642;DHT22;6894;52.196;9.904;2023-10-19T01:33:39;7.80;1.00
13642;DHT22;6894;52.196;9.904;2023-10-19T01:36:07;7.90;1.00
13642;DHT22;6894;52.196;9.904;2023-10-19T01:38:39;7.80;1.00
13642;DHT22;6894;52.196;9.904;2023-10-19T01:41:06;7.80;1.00
13642;DHT22;6894;52.196;9.904;2023-10-19T01:43:39;7.70;1.00
13642;DHT22;6894;52.196;9.904;2023-10-19T01:46:06;7.70;1.00
13642;DHT22;6894;52.196;9.904;2023-10-19T01:48:37;7.70;1.00
13642;DHT22;6894;52.196;9.904;2023-10-19T01:51:07;7.70;1.00
13642;DHT22;6894;52.196;9.904;2023-10-19T01:53:38;7.70;1.00
13642;DHT22;6894;52.196;9.904;2023-10-19T01:56:05;7.70;1.00
13642;DHT22;6894;52.196;9.904;2023-10-19T01:58:35;7.70;1.00
13642;DHT22;6894;52.196;9.904;2023-10-19T02:01:02;7.70;1.00
13642;DHT22;6894;52.196;9.904;2023-10-19T02:03:33;7.60;1.00
13642;DHT22;6894;52.196;9.904;2023-10-19T02:06:01;7.60;1.00
13642;DHT22;6894;52.196;9.904;2023-10-19T02:08:37;7.60;1.00
13642;DHT22;6894;52.196;9.904;2023-10-19T02:11:04;7.60;1.00
13642;DHT22;6894;52.196;9.904;2023-10-19T02:13:39;7.60;1.00
13642;DHT22;6894;52.196;9.904;2023-10-19T02:16:06;7.60;1.00
13642;DHT22;6894;52.196;9.904;2023-10-19T02:18:32;7.60;1.00
13642;DHT22;6894;52.196;9.904;2023-10-19T02:21:00;7.60;1.00
13642;DHT22;6894;52.196;9.904;2023-10-19T02:23:27;7.60;1.00
13642;DHT22;6894;52.196;9.904;2023-10-19T02:25:56;7.60;1.00
13642;DHT22;6894;52.196;9.904;2023-10-19T02:28:23;7.60;1.00
13642;DHT22;6894;52.196;9.904;2023-10-19T02:30:56;7.60;1.00
13642;DHT22;6894;52.196;9.904;2023-10-19T02:33:22;7.60;1.00
13642;DHT22;6894;52.196;9.904;2023-10-19T02:35:52;7.70;1.00
13642;DHT22;6894;52.196;9.904;2023-10-19T02:38:17;7.60;1.00
13642;DHT22;6894;52.196;9.904;2023-10-19T02:40:44;7.60;1.00
13642;DHT22;6894;52.196;9.904;2023-10-19T02:43:13;7.60;1.00
13642;DHT22;6894;52.196;9.904;2023-10-19T02:45:43;7.60;1.00
13642;DHT22;6894;52.196;9.904;2023-10-19T02:48:13;7.60;1.00
13642;DHT22;6894;52.196;9.904;2023-10-19T02:50:41;7.60;1.00
13642;DHT22;6894;52.196;9.904;2023-10-19T02:53:07;7.60;1.00
13642;DHT22;6894;52.196;9.904;2023-10-19T02:55:38;7.60;1.00
13642;DHT22;6894;52.196;9.904;2023-10-19T02:58:06;7.60;1.00
13642;DHT22;6894;52.196;9.904;2023-10-19T03:00:33;7.60;1.00
13642;DHT22;6894;52.196;9.904;2023-10-19T03:03:04;7.60;1.00
13642;DHT22;6894;52.196;9.904;2023-10-19T03:05:30;7.60;1.00
13642;DHT22;6894;52.196;9.904;2023-10-19T03:07:59;7.60;1.00
13642;DHT22;6894;52.196;9.904;2023-10-19T03:10:25;7.60;1.00
13642;DHT22;6894;52.196;9.904;2023-10-19T03:13:00;7.60;1.00
13642;DHT22;6894;52.196;9.904;2023-10-19T03:15:26;7.60;1.00
13642;DHT22;6894;52.196;9.904;2023-10-19T03:17:57;7.60;1.00
13642;DHT22;6894;52.196;9.904;2023-10-19T03:20:22;7.60;1.00
13642;DHT22;6894;52.196;9.904;2023-10-19T03:22:52;7.60;1.00
13642;DHT22;6894;52.196;9.904;2023-10-19T03:25:18;7.60;1.00
13642;DHT22;6894;52.196;9.904;2023-10-19T03:28:03;7.60;1.00
13642;DHT22;6894;52.196;9.904;2023-10-19T03:30:34;7.60;1.00
13642;DHT22;6894;52.196;9.904;2023-10-19T03:33:06;7.60;1.00
13642;DHT22;6894;52.196;9.904;2023-10-19T03:35:35;7.60;1.00
13642;DHT22;6894;52.196;9.904;2023-10-19T03:38:03;7.60;1.00
13642;DHT22;6894;52.196;9.904;2023-10-19T03:40:39;7.60;1.00
13642;DHT22;6894;52.196;9.904;2023-10-19T03:43:06;7.60;1.00
13642;DHT22;6894;52.196;9.904;2023-10-19T03:45:44;7.60;1.00
13642;DHT22;6894;52.196;9.904;2023-10-19T03:48:18;7.60;1.00
13642;DHT22;6894;52.196;9.904;2023-10-19T03:50:53;7.60;1.00
13642;DHT22;6894;52.196;9.904;2023-10-19T03:53:21;7.60;1.30
13642;DHT22;6894;52.196;9.904;2023-10-19T03:55:48;7.60;25.90
13642;DHT22;6894;52.196;9.904;2023-10-19T03:58:18;7.70;39.90
13642;DHT22;6894;52.196;9.904;2023-10-19T04:00:47;7.60;57.90
13642;DHT22;6894;52.196;9.904;2023-10-19T04:03:15;7.60;59.90
13642;DHT22;6894;52.196;9.904;2023-10-19T04:05:44;7.60;91.20
13642;DHT22;6894;52.196;9.904;2023-10-19T04:08:12;7.60;82.20
13642;DHT22;6894;52.196;9.904;2023-10-19T04:10:40;7.60;47.10
13642;DHT22;6894;52.196;9.904;2023-10-19T04:13:12;7.60;93.40
13642;DHT22;6894;52.196;9.904;2023-10-19T04:15:39;7.70;91.40
13642;DHT22;6894;52.196;9.904;2023-10-19T04:18:07;7.70;95.40
13642;DHT22;6894;52.196;9.904;2023-10-19T04:20:37;7.60;89.10
13642;DHT22;6894;52.196;9.904;2023-10-19T04:23:22;7.60;99.90
13642;DHT22;6894;52.196;9.904;2023-10-19T04:25:52;7.70;86.50
13642;DHT22;6894;52.196;9.904;2023-10-19T04:28:22;7.70;50.10
13642;DHT22;6894;52.196;9.904;2023-10-19T04:30:56;7.70;99.90
13642;DHT22;6894;52.196;9.904;2023-10-19T04:33:25;7.70;99.90
13642;DHT22;6894;52.196;9.904;2023-10-19T04:35:54;7.70;99.90
13642;DHT22;6894;52.196;9.904;2023-10-19T04:38:27;7.70;99.90
13642;DHT22;6894;52.196;9.904;2023-10-19T04:41:03;7.70;97.00
13642;DHT22;6894;52.196;9.904;2023-10-19T04:43:32;7.70;99.90
13642;DHT22;6894;52.196;9.904;2023-10-19T04:45:59;7.70;99.90
13642;DHT22;6894;52.196;9.904;2023-10-19T04:48:26;7.70;99.90
13642;DHT22;6894;52.196;9.904;2023-10-19T04:50:53;7.60;99.90
13642;DHT22;6894;52.196;9.904;2023-10-19T04:53:20;7.70;99.90
13642;DHT22;6894;52.196;9.904;2023-10-19T04:55:48;7.70;99.90
13642;DHT22;6894;52.196;9.904;2023-10-19T04:58:15;7.60;99.90
13642;DHT22;6894;52.196;9.904;2023-10-19T05:00:42;7.70;99.90
13642;DHT22;6894;52.196;9.904;2023-10-19T05:03:09;7.70;99.90
13642;DHT22;6894;52.196;9.904;2023-10-19T05:05:41;7.70;99.90
13642;DHT22;6894;52.196;9.904;2023-10-19T05:08:08;7.70;99.90
13642;DHT22;6894;52.196;9.904;2023-10-19T05:10:35;7.70;99.90
13642;DHT22;6894;52.196;9.904;2023-10-19T05:13:03;7.70;99.90
13642;DHT22;6894;52.196;9.904;2023-10-19T05:15:30;7.60;99.90
13642;DHT22;6894;52.196;9.904;2023-10-19T05:17:59;7.60;99.90
13642;DHT22;6894;52.196;9.904;2023-10-19T05:20:26;7.60;99.90
13642;DHT22;6894;52.196;9.904;2023-10-19T05:22:52;7.70;99.90
13642;DHT22;6894;52.196;9.904;2023-10-19T05:25:19;7.60;99.90
13642;DHT22;6894;52.196;9.904;2023-10-19T05:27:48;7.70;99.90
13642;DHT22;6894;52.196;9.904;2023-10-19T05:30:17;7.70;99.90
13642;DHT22;6894;52.196;9.904;2023-10-19T05:32:44;7.70;99.90
13642;DHT22;6894;52.196;9.904;2023-10-19T05:35:12;7.60;99.90
13642;DHT22;6894;52.196;9.904;2023-10-19T05:37:44;7.70;99.90
13642;DHT22;6894;52.196;9.904;2023-10-19T05:40:11;7.70;99.90
13642;DHT22;6894;52.196;9.904;2023-10-19T05:42:40;7.70;99.90
13642;DHT22;6894;52.196;9.904;2023-10-19T05:45:07;7.70;99.90
13642;DHT22;6894;52.196;9.904;2023-10-19T05:47:36;7.70;99.90
13642;DHT22;6894;52.196;9.904;2023-10-19T05:50:03;7.70;99.90
13642;DHT22;6894;52.196;9.904;2023-10-19T05:52:30;7.70;99.90
13642;DHT22;6894;52.196;9.904;2023-10-19T05:54:57;7.70;99.90
13642;DHT22;6894;52.196;9.904;2023-10-19T05:57:25;7.70;99.90
13642;DHT22;6894;52.196;9.904;2023-10-19T05:59:51;7.70;99.90
13642;DHT22;6894;52.196;9.904;2023-10-19T06:02:18;7.80;99.90
13642;DHT22;6894;52.196;9.904;2023-10-19T06:04:46;7.70;99.90
13642;DHT22;6894;52.196;9.904;2023-10-19T06:07:13;7.70;99.90
13642;DHT22;6894;52.196;9.904;2023-10-19T06:09:40;7.70;99.90
13642;DHT22;6894;52.196;9.904;2023-10-19T06:12:06;7.80;99.90
13642;DHT22;6894;52.196;9.904;2023-10-19T06:14:35;7.70;99.90
13642;DHT22;6894;52.196;9.904;2023-10-19T06:17:03;7.80;99.90
13642;DHT22;6894;52.196;9.904;2023-10-19T06:19:29;7.80;99.90
13642;DHT22;6894;52.196;9.904;2023-10-19T06:21:57;7.80;99.90
13642;DHT22;6894;52.196;9.904;2023-10-19T06:24:25;7.70;99.90
13642;DHT22;6894;52.196;9.904;2023-10-19T06:26:52;7.80;99.90
13642;DHT22;6894;52.196;9.904;2023-10-19T06:29:19;7.80;99.90
13642;DHT22;6894;52.196;9.904;2023-10-19T06:31:45;7.80;99.90
13642;DHT22;6894;52.196;9.904;2023-10-19T06:34:12;7.80;99.90
13642;DHT22;6894;52.196;9.904;2023-10-19T06:36:40;7.70;99.90
13642;DHT22;6894;52.196;9.904;2023-10-19T06:39:08;7.70;99.90
13642;DHT22;6894;52.196;9.904;2023-10-19T06:41:35;7.80;99.90
13642;DHT22;6894;52.196;9.904;2023-10-19T06:44:01;7.80;99.90
13642;DHT22;6894;52.196;9.904;2023-10-19T06:46:28;7.80;99.90
13642;DHT22;6894;52.196;9.904;2023-10-19T06:48:56;7.80;99.90
13642;DHT22;6894;52.196;9.904;2023-10-19T06:51:25;7.80;99.90
13642;DHT22;6894;52.196;9.904;2023-10-19T06:53:53;7.80;99.90
13642;DHT22;6894;52.196;9.904;2023-10-19T06:56:21;7.80;99.90
13642;DHT22;6894;52.196;9.904;2023-10-19T06:58:48;7.80;99.90
13642;DHT22;6894;52.196;9.904;2023-10-19T07:01:14;7.80;99.90
13642;DHT22;6894;52.196;9.904;2023-10-19T07:03:43;7.90;99.90
13642;DHT22;6894;52.196;9.904;2023-10-19T07:06:10;7.80;99.90
13642;DHT22;6894;52.196;9.904;2023-10-19T07:08:39;7.80;99.90
13642;DHT22;6894;52.196;9.904;2023-10-19T07:11:06;7.90;99.90
13642;DHT22;6894;52.196;9.904;2023-10-19T07:13:36;7.90;99.90
13642;DHT22;6894;52.196;9.904;2023-10-19T07:16:02;7.90;99.90
13642;DHT22;6894;52.196;9.904;2023-10-19T07:18:30;7.90;99.90
13642;DHT22;6894;52.196;9.904;2023-10-19T07:20:56;7.90;99.90
13642;DHT22;6894;52.196;9.904;2023-10-19T07:23:28;8.00;99.90
13642;DHT22;6894;52.196;9.904;2023-10-19T07:25:55;8.00;99.90
13642;DHT22;6894;52.196;9.904;2023-10-19T07:28:25;7.90;99.90
13642;DHT22;6894;52.196;9.904;2023-10-19T07:30:54;8.00;99.90
13642;DHT22;6894;52.196;9.904;2023-10-19T07:33:21;8.00;99.90
13642;DHT22;6894;52.196;9.904;2023-10-19T07:35:49;8.00;99.90
13642;DHT22;6894;52.196;9.904;2023-10-19T07:38:21;8.00;99.90
13642;DHT22;6894;52.196;9.904;2023-10-19T07:40:48;8.00;99.90
13642;DHT22;6894;52.196;9.904;2023-10-19T07:43:18;8.00;99.90
13642;DHT22;6894;52.196;9.904;2023-10-19T07:45:45;8.00;99.90
13642;DHT22;6894;52.196;9.904;2023-10-19T07:48:14;8.00;99.90
13642;DHT22;6894;52.196;9.904;2023-10-19T07:50:42;8.00;99.90
13642;DHT22;6894;52.196;9.904;2023-10-19T07:53:10;8.00;99.90
13642;DHT22;6894;52.196;9.904;2023-10-19T07:55:36;8.00;99.90
13642;DHT22;6894;52.196;9.904;2023-10-19T07:58:04;8.00;99.90
13642;DHT22;6894;52.196;9.904;2023-10-19T08:00:32;8.10;99.90
13642;DHT22;6894;52.196;9.904;2023-10-19T08:02:59;8.10;99.90
13642;DHT22;6894;52.196;9.904;2023-10-19T08:05:27;8.10;99.90
13642;DHT22;6894;52.196;9.904;2023-10-19T08:07:54;8.10;99.90
13642;DHT22;6894;52.196;9.904;2023-10-19T08:10:22;8.10;99.90
13642;DHT22;6894;52.196;9.904;2023-10-19T08:12:50;8.20;99.90
13642;DHT22;6894;52.196;9.904;2023-10-19T08:15:18;8.20;99.90
13642;DHT22;6894;52.196;9.904;2023-10-19T08:17:47;8.20;99.90
13642;DHT22;6894;52.196;9.904;2023-10-19T08:20:15;8.30;99.90
13642;DHT22;6894;52.196;9.904;2023-10-19T08:22:51;8.30;99.90
13642;DHT22;6894;52.196;9.904;2023-10-19T08:25:18;8.30;99.90
13642;DHT22;6894;52.196;9.904;2023-10-19T08:27:47;8.30;99.90
13642;DHT22;6894;52.196;9.904;2023-10-19T08:30:15;8.30;99.90
13642;DHT22;6894;52.196;9.904;2023-10-19T08:32:44;8.30;99.90
13642;DHT22;6894;52.196;9.904;2023-10-19T08:35:13;8.30;99.90
13642;DHT22;6894;52.196;9.904;2023-10-19T08:37:40;8.40;99.90
13642;DHT22;6894;52.196;9.904;2023-10-19T08:40:11;8.40;99.90
13642;DHT22;6894;52.196;9.904;2023-10-19T08:42:40;8.40;99.90
13642;DHT22;6894;52.196;9.904;2023-10-19T08:45:07;8.40;99.90
13642;DHT22;6894;52.196;9.904;2023-10-19T08:47:35;8.40;99.90
13642;DHT22;6894;52.196;9.904;2023-10-19T08:50:03;8.50;99.90
13642;DHT22;6894;52.196;9.904;2023-10-19T08:52:30;8.50;99.90
13642;DHT22;6894;52.196;9.904;2023-10-19T08:54:58;8.50;99.90
13642;DHT22;6894;52.196;9.904;2023-10-19T08:57:27;8.50;99.90
13642;DHT22;6894;52.196;9.904;2023-10-19T08:59:54;8.60;99.90
13642;DHT22;6894;52.196;9.904;2023-10-19T09:02:24;8.60;99.90
13642;DHT22;6894;52.196;9.904;2023-10-19T09:04:51;8.60;99.90
13642;DHT22;6894;52.196;9.904;2023-10-19T09:07:17;8.60;99.90
13642;DHT22;6894;52.196;9.904;2023-10-19T09:09:45;8.60;99.90
13642;DHT22;6894;52.196;9.904;2023-10-19T09:12:13;8.70;99.90
13642;DHT22;6894;52.196;9.904;2023-10-19T09:14:41;8.70;99.90
13642;DHT22;6894;52.196;9.904;2023-10-19T09:17:09;8.70;99.90
13642;DHT22;6894;52.196;9.904;2023-10-19T09:19:37;8.70;99.90
13642;DHT22;6894;52.196;9.904;2023-10-19T09:22:05;8.70;99.90
13642;DHT22;6894;52.196;9.904;2023-10-19T09:24:34;8.70;99.90
13642;DHT22;6894;52.196;9.904;2023-10-19T09:27:02;8.70;99.90
13642;DHT22;6894;52.196;9.904;2023-10-19T09:29:29;8.80;99.90
13642;DHT22;6894;52.196;9.904;2023-10-19T09:31:59;8.80;99.90
13642;DHT22;6894;52.196;9.904;2023-10-19T09:34:29;8.80;99.90
13642;DHT22;6894;52.196;9.904;2023-10-19T09:36:58;8.80;99.90
13642;DHT22;6894;52.196;9.904;2023-10-19T09:39:26;8.90;99.90
13642;DHT22;6894;52.196;9.904;2023-10-19T09:42:00;8.90;99.90
13642;DHT22;6894;52.196;9.904;2023-10-19T09:44:32;8.90;99.90
13642;DHT22;6894;52.196;9.904;2023-10-19T09:47:04;9.00;99.90
13642;DHT22;6894;52.196;9.904;2023-10-19T09:49:32;9.00;99.90
13642;DHT22;6894;52.196;9.904;2023-10-19T09:51:58;9.10;99.90
13642;DHT22;6894;52.196;9.904;2023-10-19T09:54:31;9.10;99.90
13642;DHT22;6894;52.196;9.904;2023-10-19T09:57:03;9.20;99.90
13642;DHT22;6894;52.196;9.904;2023-10-19T09:59:40;8.50;99.90
13642;DHT22;6894;52.196;9.904;2023-10-19T10:02:10;9.20;99.90
13642;DHT22;6894;52.196;9.904;2023-10-19T10:04:39;9.20;99.90
13642;DHT22;6894;52.196;9.904;2023-10-19T10:07:06;9.20;99.90
13642;DHT22;6894;52.196;9.904;2023-10-19T10:09:36;9.20;99.90
13642;DHT22;6894;52.196;9.904;2023-10-19T10:12:18;9.20;99.90
13642;DHT22;6894;52.196;9.904;2023-10-19T10:14:57;9.20;99.90
13642;DHT22;6894;52.196;9.904;2023-10-19T10:17:26;9.20;99.90
13642;DHT22;6894;52.196;9.904;2023-10-19T10:19:54;9.30;99.90
13642;DHT22;6894;52.196;9.904;2023-10-19T10:22:23;9.30;99.90
13642;DHT22;6894;52.196;9.904;2023-10-19T10:24:54;9.40;99.90
13642;DHT22;6894;52.196;9.904;2023-10-19T10:27:23;9.50;99.90
13642;DHT22;6894;52.196;9.904;2023-10-19T10:29:54;9.60;99.90
13642;DHT22;6894;52.196;9.904;2023-10-19T10:32:43;9.60;99.90
13642;DHT22;6894;52.196;9.904;2023-10-19T10:37:54;9.70;99.90
13642;DHT22;6894;52.196;9.904;2023-10-19T10:40:22;9.80;99.90
13642;DHT22;6894;52.196;9.904;2023-10-19T10:43:04;9.80;99.90
13642;DHT22;6894;52.196;9.904;2023-10-19T10:45:31;9.90;99.90
13642;DHT22;6894;52.196;9.904;2023-10-19T10:47:59;9.80;99.90
13642;DHT22;6894;52.196;9.904;2023-10-19T10:50:26;9.80;99.90
13642;DHT22;6894;52.196;9.904;2023-10-19T10:52:54;9.80;99.90
13642;DHT22;6894;52.196;9.904;2023-10-19T10:55:24;9.80;99.90
13642;DHT22;6894;52.196;9.904;2023-10-19T10:57:52;9.90;99.90
13642;DHT22;6894;52.196;9.904;2023-10-19T11:00:20;9.90;99.90
13642;DHT22;6894;52.196;9.904;2023-10-19T11:03:01;9.90;99.90
13642;DHT22;6894;52.196;9.904;2023-10-19T11:05:29;9.90;99.90
13642;DHT22;6894;52.196;9.904;2023-10-19T11:08:05;9.90;99.90
13642;DHT22;6894;52.196;9.904;2023-10-19T11:10:34;10.00;99.90
13642;DHT22;6894;52.196;9.904;2023-10-19T11:13:02;9.90;99.90
13642;DHT22;6894;52.196;9.904;2023-10-19T11:15:29;10.00;99.90
13642;DHT22;6894;52.196;9.904;2023-10-19T11:17:55;9.90;99.90
13642;DHT22;6894;52.196;9.904;2023-10-19T11:20:25;10.00;99.90
13642;DHT22;6894;52.196;9.904;2023-10-19T11:22:54;10.00;99.90
13642;DHT22;6894;52.196;9.904;2023-10-19T11:25:23;10.00;99.90
13642;DHT22;6894;52.196;9.904;2023-10-19T11:27:53;10.10;99.90
13642;DHT22;6894;52.196;9.904;2023-10-19T11:30:24;10.10;99.90
13642;DHT22;6894;52.196;9.904;2023-10-19T11:32:52;10.20;99.90
13642;DHT22;6894;52.196;9.904;2023-10-19T11:35:24;10.20;99.90
13642;DHT22;6894;52.196;9.904;2023-10-19T11:37:52;10.30;99.90
13642;DHT22;6894;52.196;9.904;2023-10-19T11:40:20;10.30;99.90
13642;DHT22;6894;52.196;9.904;2023-10-19T11:42:47;10.30;99.90
13642;DHT22;6894;52.196;9.904;2023-10-19T11:45:14;10.30;99.90
13642;DHT22;6894;52.196;9.904;2023-10-19T11:47:42;10.30;99.90
13642;DHT22;6894;52.196;9.904;2023-10-19T11:50:09;10.30;99.90
13642;DHT22;6894;52.196;9.904;2023-10-19T11:52:39;10.40;99.90
13642;DHT22;6894;52.196;9.904;2023-10-19T11:55:06;10.40;99.90
13642;DHT22;6894;52.196;9.904;2023-10-19T11:57:34;10.40;99.90
13642;DHT22;6894;52.196;9.904;2023-10-19T12:00:01;10.40;99.90
13642;DHT22;6894;52.196;9.904;2023-10-19T12:02:34;10.40;99.90
13642;DHT22;6894;52.196;9.904;2023-10-19T12:05:03;10.40;99.90
13642;DHT22;6894;52.196;9.904;2023-10-19T12:07:30;10.40;99.90
13642;DHT22;6894;52.196;9.904;2023-10-19T12:09:59;10.40;99.90
13642;DHT22;6894;52.196;9.904;2023-10-19T12:12:26;10.40;99.90
13642;DHT22;6894;52.196;9.904;2023-10-19T12:14:53;10.40;99.90
13642;DHT22;6894;52.196;9.904;2023-10-19T12:17:20;10.50;99.90
13642;DHT22;6894;52.196;9.904;2023-10-19T12:19:51;10.50;99.90
13642;DHT22;6894;52.196;9.904;2023-10-19T12:22:18;10.50;99.90
13642;DHT22;6894;52.196;9.904;2023-10-19T12:24:46;10.50;99.90
13642;DHT22;6894;52.196;9.904;2023-10-19T12:27:15;10.60;99.90
13642;DHT22;6894;52.196;9.904;2023-10-19T12:29:41;10.70;99.90
13642;DHT22;6894;52.196;9.904;2023-10-19T12:32:09;10.60;99.90
13642;DHT22;6894;52.196;9.904;2023-10-19T12:34:40;10.70;99.90
13642;DHT22;6894;52.196;9.904;2023-10-19T12:37:07;10.70;99.90
13642;DHT22;6894;52.196;9.904;2023-10-19T12:39:35;10.80;99.90
13642;DHT22;6894;52.196;9.904;2023-10-19T12:42:08;10.80;99.90
13642;DHT22;6894;52.196;9.904;2023-10-19T12:44:36;10.80;99.90
13642;DHT22;6894;52.196;9.904;2023-10-19T12:47:07;10.80;99.90
13642;DHT22;6894;52.196;9.904;2023-10-19T12:49:36;10.80;99.90
13642;DHT22;6894;52.196;9.904;2023-10-19T12:52:03;10.80;99.90
13642;DHT22;6894;52.196;9.904;2023-10-19T12:54:30;10.80;99.90
13642;DHT22;6894;52.196;9.904;2023-10-19T12:56:56;10.80;99.90
13642;DHT22;6894;52.196;9.904;2023-10-19T12:59:23;10.80;99.90
13642;DHT22;6894;52.196;9.904;2023-10-19T13:01:51;10.80;99.90
13642;DHT22;6894;52.196;9.904;2023-10-19T13:04:23;10.80;99.90
13642;DHT22;6894;52.196;9.904;2023-10-19T13:06:50;10.80;99.90
13642;DHT22;6894;52.196;9.904;2023-10-19T13:09:17;10.80;99.90
13642;DHT22;6894;52.196;9.904;2023-10-19T13:11:47;10.80;99.90
13642;DHT22;6894;52.196;9.904;2023-10-19T13:14:17;10.80;99.90
13642;DHT22;6894;52.196;9.904;2023-10-19T13:16:44;10.80;94.20
13642;DHT22;6894;52.196;9.904;2023-10-19T13:19:12;10.80;78.10
13642;DHT22;6894;52.196;9.904;2023-10-19T13:21:41;10.80;57.20
13642;DHT22;6894;52.196;9.904;2023-10-19T13:24:09;10.80;58.50
13642;DHT22;6894;52.196;9.904;2023-10-19T13:26:36;10.70;60.60
13642;DHT22;6894;52.196;9.904;2023-10-19T13:29:03;10.80;69.30
13642;DHT22;6894;52.196;9.904;2023-10-19T13:31:30;10.80;63.20
13642;DHT22;6894;52.196;9.904;2023-10-19T13:33:57;10.80;52.50
13642;DHT22;6894;52.196;9.904;2023-10-19T13:36:26;10.80;40.80
13642;DHT22;6894;52.196;9.904;2023-10-19T13:38:53;10.70;42.10
13642;DHT22;6894;52.196;9.904;2023-10-19T13:41:20;10.70;39.30
13642;DHT22;6894;52.196;9.904;2023-10-19T13:43:47;10.60;27.10
13642;DHT22;6894;52.196;9.904;2023-10-19T13:46:14;10.60;38.80
13642;DHT22;6894;52.196;9.904;2023-10-19T13:48:41;10.60;41.80
13642;DHT22;6894;52.196;9.904;2023-10-19T13:51:08;10.60;40.50
13642;DHT22;6894;52.196;9.904;2023-10-19T13:53:40;10.60;42.80
13642;DHT22;6894;52.196;9.904;2023-10-19T13:56:10;10.50;47.50
13642;DHT22;6894;52.196;9.904;2023-10-19T13:58:37;10.50;46.20
13642;DHT22;6894;52.196;9.904;2023-10-19T14:01:07;10.40;85.20
13642;DHT22;6894;52.196;9.904;2023-10-19T14:03:35;10.50;67.50
13642;DHT22;6894;52.196;9.904;2023-10-19T14:06:03;10.40;84.30
13642;DHT22;6894;52.196;9.904;2023-10-19T14:08:32;10.40;92.00
13642;DHT22;6894;52.196;9.904;2023-10-19T14:11:03;10.40;99.90
13642;DHT22;6894;52.196;9.904;2023-10-19T14:13:30;10.40;99.90
13642;DHT22;6894;52.196;9.904;2023-10-19T14:15:57;10.40;99.90
13642;DHT22;6894;52.196;9.904;2023-10-19T14:18:23;10.40;99.90
13642;DHT22;6894;52.196;9.904;2023-10-19T14:20:50;10.40;99.90
13642;DHT22;6894;52.196;9.904;2023-10-19T14:23:17;10.40;99.90
13642;DHT22;6894;52.196;9.904;2023-10-19T14:25:43;10.50;99.90
13642;DHT22;6894;52.196;9.904;2023-10-19T14:28:11;10.40;99.90
13642;DHT22;6894;52.196;9.904;2023-10-19T14:30:38;10.50;99.90
13642;DHT22;6894;52.196;9.904;2023-10-19T14:33:05;10.50;99.90
13642;DHT22;6894;52.196;9.904;2023-10-19T14:35:36;10.50;99.90
13642;DHT22;6894;52.196;9.904;2023-10-19T14:38:05;10.50;99.90
13642;DHT22;6894;52.196;9.904;2023-10-19T14:40:34;10.40;99.90
13642;DHT22;6894;52.196;9.904;2023-10-19T14:43:01;10.40;99.90
13642;DHT22;6894;52.196;9.904;2023-10-19T14:45:30;10.50;99.90
13642;DHT22;6894;52.196;9.904;2023-10-19T14:47:58;10.40;99.90
13642;DHT22;6894;52.196;9.904;2023-10-19T14:50:26;10.50;99.90
13642;DHT22;6894;52.196;9.904;2023-10-19T14:52:53;10.40;99.90
13642;DHT22;6894;52.196;9.904;2023-10-19T14:55:21;10.40;99.90
13642;DHT22;6894;52.196;9.904;2023-10-19T14:57:50;10.40;99.90
13642;DHT22;6894;52.196;9.904;2023-10-19T15:00:19;10.50;99.90
13642;DHT22;6894;52.196;9.904;2023-10-19T15:02:54;10.40;99.90
13642;DHT22;6894;52.196;9.904;2023-10-19T15:05:21;10.40;99.90
13642;DHT22;6894;52.196;9.904;2023-10-19T15:07:49;10.40;99.90
13642;DHT22;6894;52.196;9.904;2023-10-19T15:10:18;10.40;99.90
13642;DHT22;6894;52.196;9.904;2023-10-19T15:12:45;10.40;99.90
13642;DHT22;6894;52.196;9.904;2023-10-19T15:15:13;10.30;99.90
13642;DHT22;6894;52.196;9.904;2023-10-19T15:17:40;10.30;99.90
13642;DHT22;6894;52.196;9.904;2023-10-19T15:20:11;10.30;99.90
13642;DHT22;6894;52.196;9.904;2023-10-19T15:22:40;10.30;99.90
13642;DHT22;6894;52.196;9.904;2023-10-19T15:25:08;10.30;99.90
13642;DHT22;6894;52.196;9.904;2023-10-19T15:27:36;10.20;99.90
13642;DHT22;6894;52.196;9.904;2023-10-19T15:30:04;10.30;99.90
13642;DHT22;6894;52.196;9.904;2023-10-19T15:32:31;10.20;99.90
13642;DHT22;6894;52.196;9.904;2023-10-19T15:34:58;10.20;99.90
13642;DHT22;6894;52.196;9.904;2023-10-19T15:37:26;9.80;99.90
13642;DHT22;6894;52.196;9.904;2023-10-19T15:39:53;10.20;99.90
13642;DHT22;6894;52.196;9.904;2023-10-19T15:42:20;10.20;99.90
13642;DHT22;6894;52.196;9.904;2023-10-19T15:44:47;10.20;99.90
13642;DHT22;6894;52.196;9.904;2023-10-19T15:47:15;10.20;99.90
13642;DHT22;6894;52.196;9.904;2023-10-19T15:49:47;10.20;99.90
13642;DHT22;6894;52.196;9.904;2023-10-19T15:52:16;10.20;99.90
13642;DHT22;6894;52.196;9.904;2023-10-19T15:54:45;10.20;99.90
13642;DHT22;6894;52.196;9.904;2023-10-19T15:57:12;10.20;99.90
13642;DHT22;6894;52.196;9.904;2023-10-19T15:59:40;10.20;99.90
13642;DHT22;6894;52.196;9.904;2023-10-19T16:02:07;10.10;99.90
13642;DHT22;6894;52.196;9.904;2023-10-19T16:04:34;10.10;99.90
13642;DHT22;6894;52.196;9.904;2023-10-19T16:07:00;10.10;99.90
13642;DHT22;6894;52.196;9.904;2023-10-19T16:09:27;10.10;99.90
13642;DHT22;6894;52.196;9.904;2023-10-19T16:11:56;10.10;99.90
13642;DHT22;6894;52.196;9.904;2023-10-19T16:14:23;10.10;99.90